createdAt,value
2022-08-29T00:00:17.758Z,101697.56
2022-08-29T00:02:49.915Z,101691.00
2022-08-29T00:05:20.034Z,101691.84
2022-08-29T00:07:51.439Z,101693.34
2022-08-29T00:10:18.100Z,101687.00
2022-08-29T00:12:44.561Z,101681.56
2022-08-29T00:15:12.609Z,101695.03
2022-08-29T00:17:39.168Z,101678.03
2022-08-29T00:20:08.471Z,101686.91
2022-08-29T00:22:35.071Z,101647.31
2022-08-29T00:25:04.730Z,101684.88
2022-08-29T00:27:32.949Z,101689.09
2022-08-29T00:30:00.073Z,101672.41
2022-08-29T00:32:26.955Z,101668.72
2022-08-29T00:34:53.649Z,101694.88
2022-08-29T00:37:20.157Z,101698.41
2022-08-29T00:39:46.877Z,101694.72
2022-08-29T00:42:13.319Z,101707.19
2022-08-29T00:44:39.851Z,101675.00
2022-08-29T00:47:12.093Z,101704.31
2022-08-29T00:49:46.169Z,101692.34
2022-08-29T00:52:28.322Z,101714.59
2022-08-29T00:54:56.545Z,101678.88
2022-08-29T00:57:25.467Z,101671.09
2022-08-29T00:59:52.888Z,101717.97
2022-08-29T01:02:20.009Z,101719.47
2022-08-29T01:04:46.959Z,101723.88
2022-08-29T01:07:13.759Z,101721.16
2022-08-29T01:09:43.315Z,101722.66
2022-08-29T01:12:16.843Z,101712.50
2022-08-29T01:14:50.238Z,101672.22
2022-08-29T01:17:26.642Z,101711.94
2022-08-29T01:19:58.282Z,101717.34
2022-08-29T01:22:51.732Z,101711.41
2022-08-29T01:25:22.867Z,101708.03
2022-08-29T01:27:59.399Z,101716.16
2022-08-29T01:30:25.922Z,101707.75
2022-08-29T01:32:52.652Z,101717.00
2022-08-29T01:35:19.164Z,101707.75
2022-08-29T01:37:45.616Z,101708.59
2022-08-29T01:40:13.497Z,101717.16
2022-08-29T01:42:40.113Z,101693.59
2022-08-29T01:45:10.008Z,101731.56
2022-08-29T01:47:38.749Z,101736.66
2022-08-29T01:50:15.001Z,101703.03
2022-08-29T01:52:42.704Z,101714.19
2022-08-29T01:55:09.392Z,101730.44
2022-08-29T01:57:38.826Z,101720.63
2022-08-29T02:00:08.343Z,101714.72
2022-08-29T02:02:34.922Z,101722.94
2022-08-29T02:05:02.699Z,101707.63
2022-08-29T02:07:29.491Z,101691.50
2022-08-29T02:09:56.199Z,101718.97
2022-08-29T02:12:22.875Z,101724.41
2022-08-29T02:14:50.730Z,101712.06
2022-08-29T02:17:18.003Z,101717.69
2022-08-29T02:19:44.470Z,101722.53
2022-08-29T02:22:11.396Z,101729.81
2022-08-29T02:24:38.083Z,101712.53
2022-08-29T02:27:04.893Z,101726.75
2022-08-29T02:29:37.696Z,101721.34
2022-08-29T02:32:09.489Z,101716.94
2022-08-29T02:34:36.970Z,101719.81
2022-08-29T02:37:05.165Z,101713.22
2022-08-29T02:39:32.519Z,101715.25
2022-08-29T02:41:59.352Z,101697.09
2022-08-29T02:44:25.844Z,101713.91
2022-08-29T02:46:52.593Z,101733.94
2022-08-29T02:49:19.082Z,101720.75
2022-08-29T02:51:45.650Z,101718.88
2022-08-29T02:54:12.703Z,101721.59
2022-08-29T02:56:39.926Z,101693.44
2022-08-29T02:59:08.323Z,101706.22
2022-08-29T03:01:36.378Z,101715.31
2022-08-29T03:04:03.406Z,101697.44
2022-08-29T03:06:29.845Z,101712.31
2022-08-29T03:08:56.359Z,101712.19
2022-08-29T03:11:23.983Z,101680.50
2022-08-29T03:13:50.523Z,101681.91
2022-08-29T03:16:18.373Z,101709.06
2022-08-29T03:18:44.906Z,101709.09
2022-08-29T03:21:23.526Z,101711.69
2022-08-29T03:23:51.515Z,101686.75
2022-08-29T03:26:19.668Z,101708.72
2022-08-29T03:28:46.973Z,101704.72
2022-08-29T03:31:13.425Z,101698.53
2022-08-29T03:33:40.065Z,101702.97
2022-08-29T03:36:14.090Z,101710.72
2022-08-29T03:38:46.341Z,101705.28
2022-08-29T03:41:20.724Z,101674.78
2022-08-29T03:43:47.133Z,101676.13
2022-08-29T03:46:13.668Z,101692.50
2022-08-29T03:48:40.214Z,101705.19
2022-08-29T03:51:06.942Z,101713.78
2022-08-29T03:53:33.586Z,101714.28
2022-08-29T03:56:00.406Z,101712.97
2022-08-29T03:58:26.845Z,101720.91
2022-08-29T04:00:53.336Z,101718.72
2022-08-29T04:03:20.351Z,101715.50
2022-08-29T04:05:51.483Z,101711.78
2022-08-29T04:08:21.849Z,101720.56
2022-08-29T04:10:48.336Z,101708.09
2022-08-29T04:13:14.792Z,101723.59
2022-08-29T04:15:42.519Z,101732.19
2022-08-29T04:18:11.205Z,101737.09
2022-08-29T04:20:41.550Z,101739.97
2022-08-29T04:23:08.700Z,101736.09
2022-08-29T04:25:37.979Z,101741.47
2022-08-29T04:28:12.493Z,101746.84
2022-08-29T04:30:39.942Z,101746.22
2022-08-29T04:33:06.973Z,101753.09
2022-08-29T04:35:34.912Z,101762.59
2022-08-29T04:38:01.305Z,101749.09
2022-08-29T04:40:27.750Z,101727.47
2022-08-29T04:42:54.194Z,101765.44
2022-08-29T04:45:22.475Z,101768.47
2022-08-29T04:47:49.034Z,101735.91
2022-08-29T04:50:18.878Z,101771.53
2022-08-29T04:52:45.558Z,101746.22
2022-08-29T04:55:13.176Z,101769.47
2022-08-29T04:57:40.228Z,101775.03
2022-08-29T05:00:13.795Z,101773.84
2022-08-29T05:02:41.812Z,101782.66
2022-08-29T05:05:10.675Z,101779.25
2022-08-29T05:07:38.410Z,101749.22
2022-08-29T05:10:09.907Z,101785.69
2022-08-29T05:12:37.604Z,101795.31
2022-08-29T05:15:06.520Z,101778.41
2022-08-29T05:17:33.613Z,101757.31
2022-08-29T05:20:01.027Z,101767.25
2022-08-29T05:22:27.490Z,101769.00
2022-08-29T05:24:53.962Z,101787.38
2022-08-29T05:27:22.306Z,101791.25
2022-08-29T05:29:51.456Z,101791.13
2022-08-29T05:32:21.434Z,101793.16
2022-08-29T05:34:49.614Z,101777.44
2022-08-29T05:37:19.424Z,101797.56
2022-08-29T05:39:48.991Z,101800.91
2022-08-29T05:42:17.114Z,101799.22
2022-08-29T05:44:43.981Z,101801.94
2022-08-29T05:47:12.618Z,101793.34
2022-08-29T05:49:40.958Z,101774.22
2022-08-29T05:52:07.989Z,101786.75
2022-08-29T05:54:37.469Z,101772.88
2022-08-29T05:57:04.987Z,101809.69
2022-08-29T05:59:31.456Z,101817.09
2022-08-29T06:01:58.155Z,101804.06
2022-08-29T06:04:24.637Z,101814.03
2022-08-29T06:06:51.075Z,101793.25
2022-08-29T06:09:17.894Z,101824.31
2022-08-29T06:11:48.525Z,101809.94
2022-08-29T06:14:16.817Z,101819.06
2022-08-29T06:16:43.377Z,101800.19
2022-08-29T06:19:10.182Z,101807.41
2022-08-29T06:21:36.620Z,101808.63
2022-08-29T06:24:04.282Z,101806.94
2022-08-29T06:26:31.509Z,101814.50
2022-08-29T06:28:58.088Z,101831.88
2022-08-29T06:31:29.092Z,101829.16
2022-08-29T06:33:59.146Z,101828.66
2022-08-29T06:36:26.846Z,101843.31
2022-08-29T06:38:56.850Z,101844.19
2022-08-29T06:41:24.906Z,101819.13
2022-08-29T06:43:52.094Z,101832.50
2022-08-29T06:46:25.027Z,101817.09
2022-08-29T06:48:52.349Z,101841.41
2022-08-29T06:51:19.564Z,101814.22
2022-08-29T06:53:47.732Z,101844.56
2022-08-29T06:56:14.442Z,101826.88
2022-08-29T06:58:41.842Z,101841.69
2022-08-29T07:01:11.151Z,101817.22
2022-08-29T07:03:38.034Z,101846.75
2022-08-29T07:06:05.432Z,101853.03
2022-08-29T07:08:32.723Z,101844.41
2022-08-29T07:10:59.711Z,101842.88
2022-08-29T07:13:26.570Z,101842.19
2022-08-29T07:15:53.112Z,101818.22
2022-08-29T07:18:20.484Z,101839.31
2022-08-29T07:20:46.941Z,101850.53
2022-08-29T07:23:13.385Z,101834.63
2022-08-29T07:25:39.920Z,101837.41
2022-08-29T07:28:06.871Z,101852.91
2022-08-29T07:30:34.764Z,101856.56
2022-08-29T07:33:01.300Z,101862.50
2022-08-29T07:35:31.089Z,101855.16
2022-08-29T07:38:01.370Z,101855.25
2022-08-29T07:40:28.540Z,101864.41
2022-08-29T07:42:55.139Z,101857.13
2022-08-29T07:45:21.555Z,101859.84
2022-08-29T07:47:50.942Z,101863.78
2022-08-29T07:50:17.455Z,101858.97
2022-08-29T07:52:44.419Z,101860.56
2022-08-29T07:55:11.103Z,101864.72
2022-08-29T07:57:39.782Z,101874.09
2022-08-29T08:00:10.444Z,101843.47
2022-08-29T08:02:37.018Z,101847.50
2022-08-29T08:05:03.642Z,101862.03
2022-08-29T08:07:35.004Z,101842.44
2022-08-29T08:10:02.512Z,101881.34
2022-08-29T08:12:29.307Z,101886.69
2022-08-29T08:14:56.994Z,101865.16
2022-08-29T08:17:23.887Z,101884.88
2022-08-29T08:19:50.295Z,101872.63
2022-08-29T08:22:16.958Z,101889.19
2022-08-29T08:24:43.431Z,101885.31
2022-08-29T08:27:10.116Z,101861.00
2022-08-29T08:29:36.567Z,101890.38
2022-08-29T08:32:03.444Z,101883.75
2022-08-29T08:34:30.253Z,101875.03
2022-08-29T08:36:56.781Z,101886.97
2022-08-29T08:39:23.227Z,101869.28
2022-08-29T08:41:57.328Z,101881.00
2022-08-29T08:44:41.998Z,101873.28
2022-08-29T08:47:11.234Z,101847.25
2022-08-29T08:49:44.662Z,101886.03
2022-08-29T08:52:20.725Z,101885.47
2022-08-29T08:54:55.208Z,101893.31
2022-08-29T08:57:22.162Z,101882.22
2022-08-29T08:59:57.551Z,101902.00
2022-08-29T09:03:00.045Z,101891.53
2022-08-29T09:05:58.406Z,101881.09
2022-08-29T09:08:57.794Z,101873.41
2022-08-29T09:11:49.704Z,101879.16
2022-08-29T09:14:34.827Z,101895.41
2022-08-29T09:17:04.509Z,101884.66
2022-08-29T09:19:31.228Z,101893.06
2022-08-29T09:22:10.155Z,101912.63
2022-08-29T09:24:44.594Z,101874.84
2022-08-29T09:27:23.211Z,101906.16
2022-08-29T09:29:57.226Z,101907.22
2022-08-29T09:32:23.692Z,101897.53
2022-08-29T09:35:07.807Z,101896.88
2022-08-29T09:37:35.383Z,101900.28
2022-08-29T09:40:07.555Z,101900.09
2022-08-29T09:42:38.086Z,101884.50
2022-08-29T09:45:18.013Z,101897.13
2022-08-29T09:47:45.409Z,101905.41
2022-08-29T09:50:25.115Z,101903.25
2022-08-29T09:52:55.459Z,101895.47
2022-08-29T09:55:29.131Z,101892.94
2022-08-29T09:58:02.418Z,101911.19
2022-08-29T10:00:33.953Z,101892.28
2022-08-29T10:03:02.811Z,101911.84
2022-08-29T10:05:45.977Z,101917.28
2022-08-29T10:08:35.294Z,101909.31
2022-08-29T10:11:06.516Z,101913.25
2022-08-29T10:13:46.047Z,101882.75
2022-08-29T10:16:27.897Z,101914.94
2022-08-29T10:19:03.107Z,101910.94
2022-08-29T10:21:58.917Z,101925.94
2022-08-29T10:24:59.130Z,101921.56
2022-08-29T10:27:40.760Z,101925.31
2022-08-29T10:30:07.546Z,101920.31
2022-08-29T10:33:14.414Z,101921.59
2022-08-29T10:35:55.784Z,101909.00
2022-08-29T10:38:40.141Z,101927.69
2022-08-29T10:41:50.507Z,101922.63
2022-08-29T10:44:41.406Z,101932.47
2022-08-29T10:47:39.391Z,101904.56
2022-08-29T10:50:43.778Z,101932.50
2022-08-29T10:53:27.746Z,101931.00
2022-08-29T10:56:05.870Z,101936.94
2022-08-29T10:59:12.225Z,101937.59
2022-08-29T11:01:47.952Z,101934.84
2022-08-29T11:04:22.210Z,101934.84
2022-08-29T11:06:48.643Z,101939.47
2022-08-29T11:09:21.514Z,101933.84
2022-08-29T11:12:17.488Z,101934.25
2022-08-29T11:15:02.833Z,101918.69
2022-08-29T11:17:34.764Z,101921.22
2022-08-29T11:20:17.911Z,101932.75
2022-08-29T11:23:05.351Z,101931.22
2022-08-29T11:25:35.738Z,101919.44
2022-08-29T11:28:08.379Z,101924.84
2022-08-29T11:30:48.345Z,101928.56
2022-08-29T11:33:39.868Z,101931.03
2022-08-29T11:36:07.129Z,101935.72
2022-08-29T11:38:45.668Z,101940.97
2022-08-29T11:41:33.815Z,101946.94
2022-08-29T11:44:33.418Z,101935.78
2022-08-29T11:47:00.395Z,101926.59
2022-08-29T11:49:37.057Z,101938.16
2022-08-29T11:52:10.958Z,101945.09
2022-08-29T11:54:38.947Z,101950.78
2022-08-29T11:57:05.306Z,101949.34
2022-08-29T11:59:44.593Z,101952.31
2022-08-29T12:02:31.046Z,101938.66
2022-08-29T12:05:03.444Z,101950.63
2022-08-29T12:07:38.201Z,101933.63
2022-08-29T12:10:26.420Z,101950.22
2022-08-29T12:12:56.535Z,101958.41
2022-08-29T12:15:32.324Z,101957.13
2022-08-29T12:18:23.292Z,101958.00
2022-08-29T12:20:52.213Z,101965.34
2022-08-29T12:23:25.232Z,101968.50
2022-08-29T12:26:15.855Z,101972.22
2022-08-29T12:28:56.309Z,101970.13
2022-08-29T12:32:02.212Z,101969.88
2022-08-29T12:35:05.249Z,101949.91
2022-08-29T12:38:09.033Z,101970.06
2022-08-29T12:41:03.505Z,101964.59
2022-08-29T12:43:34.987Z,101964.56
2022-08-29T12:46:10.090Z,101937.97
2022-08-29T12:48:57.620Z,101961.97
2022-08-29T12:51:42.919Z,101961.19
2022-08-29T12:54:12.301Z,101957.56
2022-08-29T12:56:47.262Z,101966.56
2022-08-29T12:59:19.582Z,101969.72
2022-08-29T13:01:56.128Z,101971.38
2022-08-29T13:04:31.942Z,101964.50
2022-08-29T13:07:04.364Z,101966.56
2022-08-29T13:09:43.098Z,101965.53
2022-08-29T13:12:24.813Z,101964.88
2022-08-29T13:15:08.243Z,101970.69
2022-08-29T13:17:39.742Z,101972.75
2022-08-29T13:20:40.358Z,101974.91
2022-08-29T13:23:12.518Z,101967.06
2022-08-29T13:26:06.459Z,101966.22
2022-08-29T13:28:45.978Z,101962.91
2022-08-29T13:31:15.157Z,101958.09
2022-08-29T13:33:50.622Z,101956.41
2022-08-29T13:36:41.146Z,101967.97
2022-08-29T13:39:18.042Z,101961.25
2022-08-29T13:41:53.859Z,101958.94
2022-08-29T13:44:24.089Z,101951.34
2022-08-29T13:46:52.707Z,101953.81
2022-08-29T13:49:25.959Z,101956.94
2022-08-29T13:51:52.510Z,101960.25
2022-08-29T13:54:19.407Z,101947.66
2022-08-29T13:56:58.160Z,101943.06
2022-08-29T13:59:27.943Z,101956.94
2022-08-29T14:02:12.939Z,101948.97
2022-08-29T14:04:41.019Z,101925.66
2022-08-29T14:07:12.048Z,101928.84
2022-08-29T14:09:41.882Z,101940.25
2022-08-29T14:12:08.955Z,101946.00
2022-08-29T14:14:35.488Z,101942.53
2022-08-29T14:17:02.040Z,101908.53
2022-08-29T14:19:29.878Z,101930.19
2022-08-29T14:22:00.317Z,101940.94
2022-08-29T14:24:29.161Z,101879.63
2022-08-29T14:27:01.999Z,101924.81
2022-08-29T14:29:30.853Z,101921.00
2022-08-29T14:31:58.194Z,101927.94
2022-08-29T14:34:24.819Z,101918.28
2022-08-29T14:36:57.003Z,101921.84
2022-08-29T14:39:26.245Z,101922.47
2022-08-29T14:41:52.923Z,101918.72
2022-08-29T14:44:20.476Z,101939.69
2022-08-29T14:46:47.537Z,101931.06
2022-08-29T14:49:14.163Z,101890.75
2022-08-29T14:51:41.972Z,101926.00
2022-08-29T14:54:08.702Z,101935.28
2022-08-29T14:56:48.204Z,101931.72
2022-08-29T14:59:14.985Z,101935.50
2022-08-29T15:01:41.855Z,101930.03
2022-08-29T15:04:08.712Z,101918.25
2022-08-29T15:06:35.305Z,101872.06
2022-08-29T15:09:01.852Z,101909.03
2022-08-29T15:11:28.394Z,101893.91
2022-08-29T15:13:54.873Z,101920.81
2022-08-29T15:16:21.488Z,101922.88
2022-08-29T15:21:34.601Z,101923.91
2022-08-29T15:24:01.155Z,101889.69
2022-08-29T15:26:27.670Z,101896.81
2022-08-29T15:28:54.865Z,101932.94
2022-08-29T15:31:22.438Z,101917.34
2022-08-29T15:33:49.722Z,101933.06
2022-08-29T15:36:16.303Z,101913.72
2022-08-29T15:38:43.086Z,101927.56
2022-08-29T15:41:09.525Z,101935.50
2022-08-29T15:43:36.056Z,101940.06
2022-08-29T15:46:02.628Z,101924.69
2022-08-29T15:48:29.174Z,101900.25
2022-08-29T15:50:55.607Z,101935.13
2022-08-29T15:53:22.244Z,101929.78
2022-08-29T15:55:48.683Z,101929.38
2022-08-29T15:58:15.240Z,101909.75
2022-08-29T16:00:41.983Z,101927.78
2022-08-29T16:03:08.663Z,101918.94
2022-08-29T16:05:36.647Z,101933.97
2022-08-29T16:08:03.356Z,101880.94
2022-08-29T16:10:30.694Z,101937.25
2022-08-29T16:12:57.647Z,101936.03
2022-08-29T16:15:24.519Z,101931.22
2022-08-29T16:17:51.437Z,101935.09
2022-08-29T16:20:18.854Z,101936.13
2022-08-29T16:22:45.313Z,101916.34
2022-08-29T16:25:13.116Z,101898.31
2022-08-29T16:27:40.061Z,101942.25
2022-08-29T16:30:07.183Z,101922.50
2022-08-29T16:32:33.862Z,101943.19
2022-08-29T16:35:00.348Z,101936.13
2022-08-29T16:37:27.282Z,101942.59
2022-08-29T16:39:54.456Z,101946.81
2022-08-29T16:42:21.705Z,101944.28
2022-08-29T16:44:48.485Z,101933.00
2022-08-29T16:47:15.262Z,101919.97
2022-08-29T16:49:41.736Z,101935.34
2022-08-29T16:52:08.414Z,101933.47
2022-08-29T16:54:34.967Z,101934.09
2022-08-29T16:57:01.461Z,101939.09
2022-08-29T16:59:27.915Z,101919.97
2022-08-29T17:01:55.224Z,101934.69
2022-08-29T17:04:30.106Z,101929.03
2022-08-29T17:06:57.185Z,101928.38
2022-08-29T17:09:25.069Z,101902.47
2022-08-29T17:11:53.775Z,101931.13
2022-08-29T17:14:24.866Z,101937.13
2022-08-29T17:16:53.068Z,101923.47
2022-08-29T17:19:21.010Z,101930.06
2022-08-29T17:21:48.233Z,101928.44
2022-08-29T17:24:15.950Z,101923.34
2022-08-29T17:26:45.231Z,101923.59
2022-08-29T17:29:12.678Z,101900.34
2022-08-29T17:31:39.256Z,101895.53
2022-08-29T17:34:08.088Z,101908.00
2022-08-29T17:36:36.757Z,101939.19
2022-08-29T17:39:04.878Z,101939.09
2022-08-29T17:41:31.450Z,101935.63
2022-08-29T17:43:59.274Z,101941.72
2022-08-29T17:46:25.822Z,101922.72
2022-08-29T17:48:52.576Z,101943.44
2022-08-29T17:51:19.046Z,101949.41
2022-08-29T17:53:46.382Z,101953.81
2022-08-29T17:56:19.835Z,101930.88
2022-08-29T17:58:47.416Z,101957.84
2022-08-29T18:01:16.420Z,101952.00
2022-08-29T18:03:44.490Z,101953.63
2022-08-29T18:06:12.359Z,101945.66
2022-08-29T18:08:41.277Z,101957.03
2022-08-29T18:11:11.920Z,101929.63
2022-08-29T18:13:38.662Z,101955.53
2022-08-29T18:16:05.183Z,101954.91
2022-08-29T18:18:32.561Z,101950.09
2022-08-29T18:20:59.117Z,101956.41
2022-08-29T18:23:25.707Z,101921.16
2022-08-29T18:25:52.163Z,101938.59
2022-08-29T18:28:19.525Z,101950.69
2022-08-29T18:30:46.030Z,101922.31
2022-08-29T18:33:13.000Z,101904.94
2022-08-29T18:35:39.487Z,101974.75
2022-08-29T18:38:07.706Z,101936.41
2022-08-29T18:40:39.315Z,101979.84
2022-08-29T18:43:06.950Z,101981.06
2022-08-29T18:45:34.622Z,101985.97
2022-08-29T18:48:02.150Z,101961.47
2022-08-29T18:50:34.567Z,101979.22
2022-08-29T18:53:12.902Z,102000.00
2022-08-29T18:55:50.495Z,101966.53
2022-08-29T18:58:23.682Z,102000.69
2022-08-29T19:00:51.073Z,101996.63
2022-08-29T19:03:21.385Z,101978.88
2022-08-29T19:05:49.388Z,101998.97
2022-08-29T19:08:18.553Z,102006.06
2022-08-29T19:10:47.318Z,101980.31
2022-08-29T19:13:15.701Z,101997.63
2022-08-29T19:15:42.461Z,101989.16
2022-08-29T19:18:10.538Z,101999.47
2022-08-29T19:20:55.587Z,101971.19
2022-08-29T19:23:22.601Z,102000.81
2022-08-29T19:25:49.943Z,101986.44
2022-08-29T19:28:18.178Z,102002.03
2022-08-29T19:30:45.042Z,101993.38
2022-08-29T19:33:15.213Z,101994.91
2022-08-29T19:35:41.780Z,101989.16
2022-08-29T19:38:08.441Z,102004.03
2022-08-29T19:43:27.720Z,101994.41
2022-08-29T19:45:54.731Z,101999.75
2022-08-29T19:48:22.156Z,101992.31
2022-08-29T19:50:48.721Z,101980.59
2022-08-29T19:53:26.614Z,101992.09
2022-08-29T19:55:56.696Z,101947.41
2022-08-29T19:58:31.875Z,101995.59
2022-08-29T20:01:03.290Z,101990.31
2022-08-29T20:03:30.569Z,101974.19
2022-08-29T20:05:57.229Z,102004.56
2022-08-29T20:08:23.901Z,101998.47
2022-08-29T20:10:51.229Z,101953.88
2022-08-29T20:13:18.504Z,102004.47
2022-08-29T20:15:44.943Z,101970.81
2022-08-29T20:18:11.565Z,102006.00
2022-08-29T20:20:39.895Z,102004.09
2022-08-29T20:23:07.229Z,102010.28
2022-08-29T20:25:34.938Z,102000.75
2022-08-29T20:28:02.160Z,102004.63
2022-08-29T20:30:31.726Z,102004.53
2022-08-29T20:32:58.174Z,101997.69
2022-08-29T20:35:43.910Z,102004.19
2022-08-29T20:38:10.887Z,102017.50
2022-08-29T20:40:39.465Z,102012.03
2022-08-29T20:43:06.917Z,102012.13
2022-08-29T20:45:33.832Z,102009.31
2022-08-29T20:48:01.736Z,102018.81
2022-08-29T20:52:55.603Z,102004.53
2022-08-29T20:55:22.935Z,102022.66
2022-08-29T20:57:49.398Z,102014.31
2022-08-29T21:00:16.230Z,102032.75
2022-08-29T21:03:01.019Z,102026.66
2022-08-29T21:05:42.263Z,102025.22
2022-08-29T21:08:15.137Z,101992.56
2022-08-29T21:10:43.572Z,102018.06
2022-08-29T21:13:10.676Z,102022.91
2022-08-29T21:15:38.992Z,102017.13
2022-08-29T21:18:06.251Z,102008.41
2022-08-29T21:20:36.302Z,102013.03
2022-08-29T21:23:08.193Z,102012.09
2022-08-29T21:25:35.530Z,102029.34
2022-08-29T21:28:02.475Z,102021.72
2022-08-29T21:30:33.843Z,102034.06
2022-08-29T21:33:00.534Z,102033.78
2022-08-29T21:35:26.972Z,102034.63
2022-08-29T21:37:54.177Z,102030.09
2022-08-29T21:40:25.765Z,102032.09
2022-08-29T21:42:54.749Z,102026.63
2022-08-29T21:45:22.718Z,102039.31
2022-08-29T21:47:54.561Z,102017.69
2022-08-29T21:50:22.800Z,101999.00
2022-08-29T21:52:49.569Z,102027.56
2022-08-29T21:55:18.175Z,102043.06
2022-08-29T21:57:51.893Z,102032.44
2022-08-29T22:00:27.347Z,102036.16
2022-08-29T22:02:54.572Z,102017.38
2022-08-29T22:05:21.396Z,102027.50
2022-08-29T22:07:47.904Z,102026.03
2022-08-29T22:10:20.187Z,102038.28
2022-08-29T22:12:47.245Z,102031.44
2022-08-29T22:15:33.189Z,102011.66
2022-08-29T22:17:59.938Z,102005.28
2022-08-29T22:20:27.246Z,101996.63
2022-08-29T22:22:53.854Z,102002.63
2022-08-29T22:25:21.039Z,102020.56
2022-08-29T22:27:47.835Z,102034.84
2022-08-29T22:30:15.585Z,102032.00
2022-08-29T22:32:42.986Z,102033.84
2022-08-29T22:35:19.535Z,102016.81
2022-08-29T22:37:46.031Z,102011.13
2022-08-29T22:40:16.541Z,102025.66
2022-08-29T22:42:44.488Z,102019.38
2022-08-29T22:45:13.707Z,102019.81
2022-08-29T22:47:42.476Z,102031.59
2022-08-29T22:50:13.575Z,102033.94
2022-08-29T22:52:40.141Z,102038.22
2022-08-29T22:55:08.740Z,102026.53
2022-08-29T22:57:35.195Z,101987.16
2022-08-29T23:00:04.040Z,102010.81
2022-08-29T23:02:30.499Z,102045.47
2022-08-29T23:04:57.021Z,102038.13
2022-08-29T23:07:23.647Z,102019.78
2022-08-29T23:09:50.689Z,102024.84
2022-08-29T23:12:17.650Z,102020.31
2022-08-29T23:14:48.777Z,102041.50
2022-08-29T23:17:16.637Z,102040.22
2022-08-29T23:19:43.792Z,102034.00
2022-08-29T23:22:12.686Z,102032.38
2022-08-29T23:24:41.342Z,102012.72
2022-08-29T23:27:20.419Z,102004.91
2022-08-29T23:29:50.412Z,102027.50
2022-08-29T23:32:17.238Z,102024.38
2022-08-29T23:34:44.016Z,102046.06
2022-08-29T23:37:10.546Z,102036.97
2022-08-29T23:39:36.995Z,102021.28
2022-08-29T23:42:04.013Z,101988.03
2022-08-29T23:44:30.528Z,102012.06
2022-08-29T23:46:57.312Z,102029.22
2022-08-29T23:49:23.965Z,102029.38
2022-08-29T23:51:50.925Z,102042.59
2022-08-29T23:54:18.272Z,101993.72
2022-08-29T23:56:45.015Z,102042.59
2022-08-29T23:59:31.447Z,102011.06
